createdAt,value
2018-03-19T00:02:15.697Z,88.50
2018-03-19T00:04:43.565Z,88.00
2018-03-19T00:07:11.488Z,89.50
2018-03-19T00:09:39.374Z,89.50
2018-03-19T00:12:07.302Z,88.70
2018-03-19T00:14:35.215Z,89.20
2018-03-19T00:17:03.928Z,88.90
2018-03-19T00:19:31.804Z,88.80
2018-03-19T00:22:00.445Z,91.20
2018-03-19T00:24:29.142Z,90.10
2018-03-19T00:26:57.023Z,90.10
2018-03-19T00:29:24.961Z,90.50
2018-03-19T00:31:52.833Z,91.10
2018-03-19T00:34:20.763Z,91.50
2018-03-19T00:36:48.639Z,91.70
2018-03-19T00:39:16.561Z,92.90
2018-03-19T00:41:44.432Z,91.80
2018-03-19T00:44:12.350Z,91.30
2018-03-19T00:46:40.226Z,90.90
2018-03-19T00:49:08.149Z,91.40
2018-03-19T00:51:36.103Z,91.50
2018-03-19T00:54:04.076Z,90.70
2018-03-19T00:56:31.952Z,94.50
2018-03-19T00:58:59.873Z,94.10
2018-03-19T01:01:27.867Z,92.90
2018-03-19T01:03:55.792Z,92.50
2018-03-19T01:06:23.667Z,92.00
2018-03-19T01:08:51.606Z,90.90
2018-03-19T01:11:19.512Z,90.20
2018-03-19T01:13:48.188Z,91.50
2018-03-19T01:16:16.114Z,91.50
2018-03-19T01:18:43.979Z,92.70
2018-03-19T01:21:11.958Z,91.80
2018-03-19T01:23:39.888Z,91.90
2018-03-19T01:26:07.823Z,91.50
2018-03-19T01:28:35.690Z,92.20
2018-03-19T01:31:03.838Z,90.70
2018-03-19T01:33:31.694Z,91.20
2018-03-19T01:35:59.614Z,91.70
2018-03-19T01:38:27.490Z,91.90
2018-03-19T01:40:55.408Z,92.20
2018-03-19T01:43:23.291Z,92.40
2018-03-19T01:45:51.209Z,93.50
2018-03-19T01:48:19.091Z,92.30
2018-03-19T01:50:47.797Z,92.10
2018-03-19T01:53:15.820Z,92.00
2018-03-19T01:55:43.731Z,92.50
2018-03-19T01:58:11.661Z,93.60
2018-03-19T02:00:39.540Z,94.10
2018-03-19T02:03:07.470Z,92.30
2018-03-19T02:05:35.347Z,91.40
2018-03-19T02:08:03.285Z,91.60
2018-03-19T02:10:31.184Z,92.70
2018-03-19T02:12:59.104Z,91.60
2018-03-19T02:15:27.991Z,93.40
2018-03-19T02:17:55.926Z,93.40
2018-03-19T02:20:23.806Z,93.10
2018-03-19T02:22:51.821Z,92.60
2018-03-19T02:25:20.485Z,92.70
2018-03-19T02:27:48.396Z,92.70
2018-03-19T02:30:16.275Z,92.70
2018-03-19T02:32:44.212Z,92.30
2018-03-19T02:35:12.079Z,92.60
2018-03-19T02:37:40.021Z,92.90
2018-03-19T02:40:07.903Z,94.30
2018-03-19T02:42:35.886Z,94.10
2018-03-19T02:45:03.897Z,92.70
2018-03-19T02:47:31.768Z,92.80
2018-03-19T02:49:59.708Z,93.70
2018-03-19T02:52:27.732Z,92.70
2018-03-19T02:54:55.670Z,93.70
2018-03-19T02:57:23.559Z,94.00
2018-03-19T02:59:51.490Z,94.10
2018-03-19T03:02:19.397Z,95.00
2018-03-19T03:04:47.338Z,93.80
2018-03-19T03:07:15.229Z,94.10
2018-03-19T03:09:43.155Z,95.30
2018-03-19T03:12:11.087Z,93.70
2018-03-19T03:14:39.015Z,94.50
2018-03-19T03:17:06.881Z,94.80
2018-03-19T03:19:34.808Z,94.60
2018-03-19T03:22:09.761Z,95.30
2018-03-19T03:24:37.691Z,96.60
2018-03-19T03:27:05.577Z,93.80
2018-03-19T03:29:33.506Z,93.60
2018-03-19T03:32:01.399Z,94.90
2018-03-19T03:34:29.342Z,93.90
2018-03-19T03:36:57.244Z,93.60
2018-03-19T03:39:25.113Z,94.50
2018-03-19T03:41:53.027Z,95.10
2018-03-19T03:44:20.920Z,94.40
2018-03-19T03:46:48.854Z,94.10
2018-03-19T03:49:16.732Z,93.50
2018-03-19T03:51:44.915Z,93.30
2018-03-19T03:54:12.799Z,94.20
2018-03-19T03:56:40.734Z,93.60
2018-03-19T03:59:08.618Z,93.90
2018-03-19T04:01:36.556Z,94.30
2018-03-19T04:04:05.211Z,94.80
2018-03-19T04:06:33.158Z,94.80
2018-03-19T04:09:01.063Z,93.70
2018-03-19T04:11:29.006Z,94.40
2018-03-19T04:13:56.887Z,94.40
2018-03-19T04:16:24.821Z,94.30
2018-03-19T04:18:52.739Z,94.50
2018-03-19T04:21:20.873Z,94.30
2018-03-19T04:23:48.753Z,95.30
2018-03-19T04:26:20.693Z,95.20
2018-03-19T04:28:48.582Z,95.50
2018-03-19T04:31:16.446Z,95.10
2018-03-19T04:33:44.364Z,95.00
2018-03-19T04:36:12.254Z,94.90
2018-03-19T04:38:40.183Z,95.30
2018-03-19T04:41:08.141Z,96.30
2018-03-19T04:43:36.061Z,95.80
2018-03-19T04:46:03.948Z,96.90
2018-03-19T04:48:31.884Z,94.30
2018-03-19T04:50:59.761Z,96.90
2018-03-19T04:53:27.688Z,96.30
2018-03-19T04:55:55.582Z,95.10
2018-03-19T04:58:23.513Z,94.30
2018-03-19T05:00:51.406Z,95.70
2018-03-19T05:03:19.944Z,95.20
2018-03-19T05:05:47.828Z,95.70
2018-03-19T05:08:15.746Z,97.20
2018-03-19T05:10:44.389Z,96.70
2018-03-19T05:13:12.336Z,96.70
2018-03-19T05:15:40.201Z,97.40
2018-03-19T05:18:08.088Z,97.50
2018-03-19T05:20:36.019Z,95.60
2018-03-19T05:23:03.918Z,95.40
2018-03-19T05:25:31.844Z,95.20
2018-03-19T05:27:59.733Z,95.60
2018-03-19T05:30:27.700Z,96.10
2018-03-19T05:32:56.773Z,95.40
2018-03-19T05:35:25.488Z,95.80
2018-03-19T05:37:53.369Z,95.70
2018-03-19T05:40:21.325Z,95.70
2018-03-19T05:42:49.213Z,95.80
2018-03-19T05:45:17.135Z,95.80
2018-03-19T05:47:45.805Z,96.00
2018-03-19T05:50:13.732Z,96.00
2018-03-19T05:52:41.611Z,96.20
2018-03-19T05:55:09.555Z,95.90
2018-03-19T05:57:37.456Z,96.20
2018-03-19T06:00:05.449Z,95.90
2018-03-19T06:02:33.498Z,96.70
2018-03-19T06:05:01.443Z,96.00
2018-03-19T06:07:29.331Z,95.60
2018-03-19T06:09:57.206Z,96.00
2018-03-19T06:12:25.736Z,95.30
2018-03-19T06:14:53.769Z,95.60
2018-03-19T06:17:22.172Z,95.30
2018-03-19T06:19:50.124Z,95.90
2018-03-19T06:22:18.074Z,95.70
2018-03-19T06:24:46.018Z,96.40
2018-03-19T06:27:13.939Z,94.30
2018-03-19T06:29:41.835Z,96.20
2018-03-19T06:32:10.561Z,94.50
2018-03-19T06:34:38.456Z,94.50
2018-03-19T06:37:06.421Z,95.00
2018-03-19T06:39:35.140Z,95.70
2018-03-19T06:42:03.153Z,96.20
2018-03-19T06:44:31.979Z,96.60
2018-03-19T06:46:59.914Z,96.10
2018-03-19T06:49:27.832Z,96.20
2018-03-19T06:51:55.762Z,95.60
2018-03-19T06:54:23.653Z,96.50
2018-03-19T06:56:51.590Z,95.40
2018-03-19T06:59:19.488Z,95.00
2018-03-19T07:01:47.724Z,95.40
2018-03-19T07:04:15.648Z,95.10
2018-03-19T07:06:43.524Z,94.60
2018-03-19T07:09:11.444Z,94.30
2018-03-19T07:11:39.335Z,94.50
2018-03-19T07:14:07.260Z,93.90
2018-03-19T07:16:35.124Z,93.60
2018-03-19T07:19:03.048Z,94.00
2018-03-19T07:21:31.028Z,93.10
2018-03-19T07:23:58.950Z,92.10
2018-03-19T07:26:26.850Z,92.50
2018-03-19T07:28:54.825Z,90.70
2018-03-19T07:31:24.854Z,90.40
2018-03-19T07:33:52.835Z,90.90
2018-03-19T07:36:20.713Z,90.80
2018-03-19T07:38:49.408Z,90.40
2018-03-19T07:41:18.083Z,89.90
2018-03-19T07:43:46.793Z,89.60
2018-03-19T07:46:14.655Z,89.60
2018-03-19T07:48:43.412Z,87.20
2018-03-19T07:51:11.300Z,87.30
2018-03-19T07:53:40.017Z,84.60
2018-03-19T07:56:08.004Z,84.40
2018-03-19T07:58:35.881Z,83.60
2018-03-19T08:01:03.868Z,85.40
2018-03-19T08:03:31.792Z,84.90
2018-03-19T08:05:59.742Z,82.40
2018-03-19T08:08:28.422Z,77.90
2018-03-19T08:10:56.353Z,77.90
2018-03-19T08:13:24.228Z,76.70
2018-03-19T08:15:52.143Z,69.10
2018-03-19T08:18:20.056Z,68.60
2018-03-19T08:20:48.039Z,70.10
2018-03-19T08:23:17.143Z,73.30
2018-03-19T08:25:45.868Z,76.40
2018-03-19T08:28:14.569Z,78.80
2018-03-19T08:30:42.555Z,78.80
2018-03-19T08:33:10.451Z,81.00
2018-03-19T08:35:38.362Z,74.20
2018-03-19T08:38:06.246Z,78.30
2018-03-19T08:40:34.155Z,78.70
2018-03-19T08:43:02.095Z,79.60
2018-03-19T08:45:30.016Z,79.10
2018-03-19T08:47:57.965Z,85.60
2018-03-19T08:50:29.658Z,82.90
2018-03-19T08:53:02.618Z,81.90
2018-03-19T08:55:31.331Z,80.30
2018-03-19T08:57:59.790Z,78.40
2018-03-19T09:00:27.780Z,81.40
2018-03-19T09:02:56.479Z,83.80
2018-03-19T09:05:29.929Z,80.70
2018-03-19T09:07:58.329Z,80.60
2018-03-19T09:10:26.395Z,79.70
2018-03-19T09:12:54.319Z,79.50
2018-03-19T09:15:22.267Z,82.10
2018-03-19T09:17:50.196Z,77.50
2018-03-19T09:20:18.082Z,74.60
2018-03-19T09:22:50.052Z,75.00
2018-03-19T09:25:17.932Z,78.90
2018-03-19T09:27:45.856Z,75.50
2018-03-19T09:30:13.750Z,76.70
2018-03-19T09:32:41.722Z,75.30
2018-03-19T09:35:09.986Z,72.60
2018-03-19T09:37:38.722Z,75.80
2018-03-19T09:40:06.656Z,75.70
2018-03-19T09:42:34.588Z,70.30
2018-03-19T09:45:02.508Z,74.70
2018-03-19T09:47:31.224Z,66.30
2018-03-19T09:49:59.100Z,66.40
2018-03-19T09:52:27.103Z,64.70
2018-03-19T09:54:55.044Z,66.70
2018-03-19T09:57:22.942Z,60.50
2018-03-19T09:59:50.877Z,58.90
2018-03-19T10:02:18.784Z,55.10
2018-03-19T10:04:46.769Z,48.80
2018-03-19T10:07:14.656Z,43.20
2018-03-19T10:09:42.644Z,41.20
2018-03-19T10:12:10.532Z,39.80
2018-03-19T10:14:38.484Z,39.10
2018-03-19T10:17:06.353Z,39.80
2018-03-19T10:19:34.308Z,38.30
2018-03-19T10:22:04.354Z,38.00
2018-03-19T10:24:32.270Z,37.10
2018-03-19T10:27:00.136Z,36.10
2018-03-19T10:29:30.375Z,36.70
2018-03-19T10:32:01.150Z,35.10
2018-03-19T10:34:29.249Z,35.30
2018-03-19T10:36:57.136Z,35.00
2018-03-19T10:39:25.065Z,35.00
2018-03-19T10:41:52.931Z,34.10
2018-03-19T10:44:20.898Z,34.40
2018-03-19T10:46:48.983Z,33.40
2018-03-19T10:49:17.030Z,33.50
2018-03-19T10:51:52.244Z,33.60
2018-03-19T10:54:20.915Z,31.80
2018-03-19T10:56:48.876Z,31.70
2018-03-19T10:59:17.360Z,31.80
2018-03-19T11:01:46.104Z,31.60
2018-03-19T11:04:14.761Z,32.40
2018-03-19T11:06:45.054Z,31.80
2018-03-19T11:09:18.478Z,31.70
2018-03-19T11:11:46.468Z,32.30
2018-03-19T11:14:14.348Z,32.00
2018-03-19T11:16:42.306Z,31.60
2018-03-19T11:19:10.171Z,31.40
2018-03-19T11:21:38.151Z,30.00
2018-03-19T11:24:09.314Z,32.30
2018-03-19T11:26:41.683Z,31.90
2018-03-19T11:29:13.060Z,32.00
2018-03-19T11:31:41.237Z,31.50
2018-03-19T11:34:09.125Z,31.70
2018-03-19T11:36:37.052Z,33.50
2018-03-19T11:39:05.034Z,32.40
2018-03-19T11:41:33.075Z,32.10
2018-03-19T11:44:00.949Z,31.80
2018-03-19T11:46:29.231Z,32.80
2018-03-19T11:48:57.225Z,33.60
2018-03-19T11:51:25.463Z,33.30
2018-03-19T11:53:53.375Z,32.50
2018-03-19T11:56:21.247Z,32.10
2018-03-19T11:58:49.989Z,32.70
2018-03-19T12:01:17.932Z,32.60
2018-03-19T12:03:46.665Z,31.70
2018-03-19T12:06:14.564Z,31.60
2018-03-19T12:08:42.504Z,31.20
2018-03-19T12:11:10.509Z,31.40
2018-03-19T12:13:38.436Z,30.60
2018-03-19T12:16:06.323Z,31.90
2018-03-19T12:18:34.240Z,32.00
2018-03-19T12:21:02.857Z,30.10
2018-03-19T12:23:30.816Z,30.00
2018-03-19T12:25:59.176Z,29.40
2018-03-19T12:28:27.824Z,29.00
2018-03-19T12:30:55.750Z,29.00
2018-03-19T12:33:23.627Z,28.80
2018-03-19T12:35:51.535Z,28.80
2018-03-19T12:38:19.399Z,29.30
2018-03-19T12:40:47.677Z,28.30
2018-03-19T12:43:15.554Z,28.50
2018-03-19T12:45:43.593Z,28.60
2018-03-19T12:48:13.710Z,28.20
2018-03-19T12:50:41.669Z,28.40
2018-03-19T12:53:09.705Z,28.70
2018-03-19T12:55:37.615Z,29.10
2018-03-19T12:58:05.499Z,29.60
2018-03-19T13:00:33.410Z,28.70
2018-03-19T13:03:05.272Z,28.90
2018-03-19T13:05:33.947Z,31.50
2018-03-19T13:08:01.814Z,31.40
2018-03-19T13:10:29.788Z,31.10
2018-03-19T13:12:57.702Z,31.50
2018-03-19T13:15:26.705Z,30.50
2018-03-19T13:17:56.674Z,30.80
2018-03-19T13:20:25.228Z,31.50
2018-03-19T13:22:53.195Z,31.20
2018-03-19T13:25:21.117Z,30.90
2018-03-19T13:27:49.782Z,33.70
2018-03-19T13:30:17.651Z,33.80
2018-03-19T13:32:45.585Z,32.40
2018-03-19T13:35:13.487Z,33.30
2018-03-19T13:37:41.413Z,32.10
2018-03-19T13:40:09.274Z,31.50
2018-03-19T13:42:38.147Z,32.20
2018-03-19T13:45:06.075Z,31.70
2018-03-19T13:47:33.984Z,31.90
2018-03-19T13:50:05.398Z,32.50
2018-03-19T13:52:36.889Z,32.50
2018-03-19T13:55:05.527Z,31.90
2018-03-19T13:57:33.472Z,31.80
2018-03-19T14:00:01.418Z,32.60
2018-03-19T14:02:29.463Z,33.00
2018-03-19T14:04:57.370Z,32.80
2018-03-19T14:07:25.297Z,33.70
2018-03-19T14:09:53.173Z,33.30
2018-03-19T14:12:24.809Z,33.00
2018-03-19T14:14:52.700Z,33.00
2018-03-19T14:17:20.555Z,35.20
2018-03-19T14:19:48.482Z,33.90
2018-03-19T14:22:16.530Z,34.00
2018-03-19T14:24:44.441Z,34.30
2018-03-19T14:27:12.298Z,34.10
2018-03-19T14:29:40.631Z,34.30
2018-03-19T14:32:10.276Z,34.70
2018-03-19T14:34:38.447Z,34.20
2018-03-19T14:37:06.344Z,35.50
2018-03-19T14:39:34.283Z,35.60
2018-03-19T14:42:02.365Z,35.10
2018-03-19T14:44:30.328Z,36.40
2018-03-19T14:46:58.249Z,35.70
2018-03-19T14:49:26.200Z,35.30
2018-03-19T14:51:56.090Z,35.30
2018-03-19T14:54:24.023Z,36.60
2018-03-19T14:56:51.878Z,36.80
2018-03-19T14:59:20.559Z,37.10
2018-03-19T15:01:48.452Z,37.10
2018-03-19T15:04:17.201Z,37.10
2018-03-19T15:06:45.051Z,37.10
2018-03-19T15:09:12.956Z,37.30
2018-03-19T15:11:40.841Z,36.80
2018-03-19T15:14:08.698Z,37.40
2018-03-19T15:16:36.608Z,37.90
2018-03-19T15:19:04.487Z,37.70
2018-03-19T15:21:36.335Z,37.60
2018-03-19T15:24:04.248Z,37.80
2018-03-19T15:26:32.223Z,39.60
2018-03-19T15:29:00.119Z,37.60
2018-03-19T15:31:28.805Z,39.40
2018-03-19T15:33:56.664Z,39.40
2018-03-19T15:36:25.338Z,38.50
2018-03-19T15:38:53.197Z,38.40
2018-03-19T15:41:21.123Z,37.50
2018-03-19T15:43:48.970Z,38.50
2018-03-19T15:46:17.162Z,39.50
2018-03-19T15:48:45.180Z,39.70
2018-03-19T15:51:13.414Z,39.90
2018-03-19T15:53:41.280Z,39.30
2018-03-19T15:56:09.210Z,39.70
2018-03-19T15:58:37.083Z,39.50
2018-03-19T16:01:05.768Z,39.50
2018-03-19T16:03:33.672Z,39.50
2018-03-19T16:06:01.625Z,40.20
2018-03-19T16:08:29.509Z,39.70
2018-03-19T16:10:57.446Z,40.10
2018-03-19T16:13:25.779Z,40.70
2018-03-19T16:15:53.723Z,39.50
2018-03-19T16:18:22.607Z,39.60
2018-03-19T16:20:50.598Z,40.80
2018-03-19T16:23:18.743Z,41.50
2018-03-19T16:25:46.813Z,40.40
2018-03-19T16:28:14.728Z,41.10
2018-03-19T16:30:42.587Z,40.90
2018-03-19T16:33:10.509Z,41.20
2018-03-19T16:35:39.160Z,43.60
2018-03-19T16:38:07.059Z,43.60
2018-03-19T16:40:35.678Z,44.50
2018-03-19T16:43:03.716Z,44.50
2018-03-19T16:45:32.347Z,46.60
2018-03-19T16:48:00.271Z,46.60
2018-03-19T16:50:28.153Z,45.70
2018-03-19T16:52:56.067Z,47.00
2018-03-19T16:55:23.952Z,48.80
2018-03-19T16:57:51.862Z,47.60
2018-03-19T17:00:19.741Z,47.20
2018-03-19T17:02:47.695Z,47.50
2018-03-19T17:05:16.367Z,51.30
2018-03-19T17:07:45.073Z,53.30
2018-03-19T17:10:13.754Z,54.70
2018-03-19T17:12:42.384Z,55.00
2018-03-19T17:15:10.321Z,54.90
2018-03-19T17:17:38.183Z,56.30
2018-03-19T17:20:06.874Z,63.90
2018-03-19T17:22:34.737Z,63.90
2018-03-19T17:25:02.696Z,60.10
2018-03-19T17:27:30.555Z,61.40
2018-03-19T17:29:58.474Z,70.70
2018-03-19T17:32:26.356Z,73.00
2018-03-19T17:34:54.271Z,84.70
2018-03-19T17:37:22.975Z,95.40
2018-03-19T17:39:50.887Z,95.40
2018-03-19T17:42:18.988Z,96.60
2018-03-19T17:44:46.910Z,98.60
2018-03-19T17:47:14.780Z,99.10
2018-03-19T17:49:42.705Z,99.30
2018-03-19T17:52:10.584Z,99.90
2018-03-19T17:54:38.511Z,99.60
2018-03-19T17:57:06.374Z,99.90
2018-03-19T17:59:34.324Z,99.90
2018-03-19T18:02:02.203Z,99.90
2018-03-19T18:04:30.074Z,99.90
2018-03-19T18:06:57.989Z,99.90
2018-03-19T18:09:26.618Z,99.90
2018-03-19T18:11:54.658Z,99.90
2018-03-19T18:14:22.604Z,99.90
2018-03-19T18:16:50.527Z,99.90
2018-03-19T18:19:18.388Z,99.90
2018-03-19T18:21:46.318Z,99.90
2018-03-19T18:24:14.940Z,99.90
2018-03-19T18:26:43.635Z,99.90
2018-03-19T18:29:11.504Z,99.90
2018-03-19T18:31:39.431Z,99.90
2018-03-19T18:34:07.298Z,99.90
2018-03-19T18:36:36.043Z,99.90
2018-03-19T18:39:04.041Z,99.90
2018-03-19T18:41:32.159Z,99.90
2018-03-19T18:44:00.073Z,99.90
2018-03-19T18:46:28.008Z,99.90
2018-03-19T18:48:55.879Z,99.90
2018-03-19T18:51:23.754Z,99.90
2018-03-19T18:53:52.041Z,99.90
2018-03-19T18:56:19.925Z,99.90
2018-03-19T18:58:47.949Z,99.90
2018-03-19T19:01:15.857Z,99.90
2018-03-19T19:03:43.764Z,99.90
2018-03-19T19:06:12.798Z,99.90
2018-03-19T19:08:41.870Z,99.90
2018-03-19T19:11:10.479Z,99.90
2018-03-19T19:13:38.438Z,99.90
2018-03-19T19:16:06.295Z,99.90
2018-03-19T19:18:34.200Z,99.90
2018-03-19T19:21:02.056Z,99.90
2018-03-19T19:23:30.685Z,99.90
2018-03-19T19:25:59.510Z,99.90
2018-03-19T19:28:27.628Z,99.90
2018-03-19T19:30:55.824Z,99.90
2018-03-19T19:33:24.440Z,99.90
2018-03-19T19:35:52.956Z,99.90
2018-03-19T19:38:21.380Z,99.90
2018-03-19T19:40:50.010Z,99.90
2018-03-19T19:43:18.480Z,99.90
2018-03-19T19:45:46.418Z,99.90
2018-03-19T19:48:15.020Z,99.90
2018-03-19T19:50:44.819Z,99.90
2018-03-19T19:53:16.814Z,99.90
2018-03-19T19:55:47.439Z,99.90
2018-03-19T19:58:15.567Z,99.90
2018-03-19T20:00:43.504Z,99.90
2018-03-19T20:03:12.265Z,99.90
2018-03-19T20:05:40.184Z,99.90
2018-03-19T20:08:10.297Z,99.90
2018-03-19T20:10:38.488Z,99.90
2018-03-19T20:13:06.678Z,99.90
2018-03-19T20:15:35.363Z,99.90
2018-03-19T20:18:03.371Z,99.90
2018-03-19T20:20:31.297Z,99.90
2018-03-19T20:23:02.528Z,99.90
2018-03-19T20:25:32.459Z,99.90
2018-03-19T20:28:03.863Z,99.90
2018-03-19T20:30:42.606Z,99.90
2018-03-19T20:33:10.697Z,99.90
2018-03-19T20:35:38.766Z,99.90
2018-03-19T20:38:06.646Z,99.90
2018-03-19T20:40:34.516Z,99.90
2018-03-19T20:43:02.434Z,99.90
2018-03-19T20:45:30.279Z,99.90
2018-03-19T20:47:58.944Z,99.90
2018-03-19T20:50:26.805Z,99.90
2018-03-19T20:52:54.720Z,99.90
2018-03-19T20:55:22.711Z,99.90
2018-03-19T20:57:50.654Z,99.90
2018-03-19T21:00:18.537Z,99.90
2018-03-19T21:02:51.083Z,99.90
2018-03-19T21:05:19.699Z,99.90
2018-03-19T21:07:47.613Z,99.90
2018-03-19T21:10:15.482Z,99.90
2018-03-19T21:12:43.400Z,99.90
2018-03-19T21:15:11.259Z,99.90
2018-03-19T21:17:39.173Z,99.90
2018-03-19T21:20:07.035Z,99.90
2018-03-19T21:22:35.435Z,99.90
2018-03-19T21:25:03.431Z,99.90
2018-03-19T21:27:32.511Z,99.90
2018-03-19T21:30:00.436Z,99.90
2018-03-19T21:32:29.306Z,99.90
2018-03-19T21:34:57.195Z,99.90
2018-03-19T21:37:25.064Z,99.90
2018-03-19T21:39:55.136Z,99.90
2018-03-19T21:42:22.988Z,99.90
2018-03-19T21:44:50.903Z,99.90
2018-03-19T21:47:18.863Z,99.90
2018-03-19T21:49:47.165Z,99.90
2018-03-19T21:52:15.117Z,99.90
2018-03-19T21:54:43.032Z,99.90
2018-03-19T21:57:10.892Z,99.90
2018-03-19T21:59:39.278Z,99.90
2018-03-19T22:02:08.084Z,99.90
2018-03-19T22:04:36.030Z,99.90
2018-03-19T22:07:03.932Z,99.90
2018-03-19T22:09:32.626Z,99.90
2018-03-19T22:12:01.432Z,99.90
2018-03-19T22:14:29.340Z,99.90
2018-03-19T22:16:57.201Z,99.90
2018-03-19T22:19:25.110Z,99.90
2018-03-19T22:21:52.984Z,99.90
2018-03-19T22:24:21.604Z,99.90
2018-03-19T22:26:49.507Z,99.90
2018-03-19T22:29:17.373Z,99.90
2018-03-19T22:31:45.307Z,99.90
2018-03-19T22:34:13.164Z,99.90
2018-03-19T22:36:41.080Z,99.90
2018-03-19T22:39:08.937Z,99.90
2018-03-19T22:41:36.853Z,99.90
2018-03-19T22:44:04.711Z,99.90
2018-03-19T22:46:33.391Z,99.90
2018-03-19T22:49:01.257Z,99.90
2018-03-19T22:51:29.245Z,99.90
2018-03-19T22:53:57.879Z,99.90
2018-03-19T22:56:25.885Z,99.90
2018-03-19T22:58:53.744Z,99.90
2018-03-19T23:01:21.665Z,99.90
2018-03-19T23:03:49.530Z,99.90
2018-03-19T23:06:17.454Z,99.90
2018-03-19T23:08:48.411Z,99.90
2018-03-19T23:11:16.491Z,99.90
2018-03-19T23:13:45.162Z,99.90
2018-03-19T23:16:13.024Z,99.90
2018-03-19T23:18:40.948Z,99.90
2018-03-19T23:21:09.040Z,99.90
2018-03-19T23:23:36.962Z,99.90
2018-03-19T23:26:05.609Z,99.90
2018-03-19T23:28:34.436Z,99.90
2018-03-19T23:31:04.533Z,99.90
2018-03-19T23:33:32.449Z,99.90
2018-03-19T23:36:01.107Z,99.90
2018-03-19T23:38:29.807Z,99.90
2018-03-19T23:40:57.679Z,99.90
2018-03-19T23:43:25.587Z,99.90
2018-03-19T23:45:53.448Z,99.90
2018-03-19T23:48:21.368Z,99.90
2018-03-19T23:50:50.119Z,99.90
2018-03-19T23:53:18.044Z,99.90
2018-03-19T23:55:45.909Z,99.90
2018-03-19T23:58:13.918Z,99.90
